Airfield :
LOGIN :

Register | Disclaimer

   EN    FR    IT 

 










Legend :    VFR   Marginal VFR   IFR   Intensive IFR   Very Intensive IFR
Visi :
Ceiling :
>= 8 km
>= 3000ft
5 to 8 km
1000 to 3000 ft
1500m to 5 km
500 to 1000 ft
800 to 1500m
200 to 500 ft
< 800m
< 200 ft
Symbols :   Thunderstorms  Fog  Heavy snow  Heavy precipitations  Wind > 20 kt
SIGMETs :     Misc.  Thunderstorms  Icing  Turbulence  Mountain Waves  Volcanic Ashes







- Airport Elevation : 1363 ft


ETIC - Grafenwohr Army Air Field

CURRENT METAR :
  • 240456Z AUTO 00000KT 9999 BKN075 OVC110 03/03 A2993 RMK AO2 SLP150 T00280027 $

EXPIRED METARs :
  • 240356Z AUTO 00000KT 9999 SCT080 OVC110 02/02 A2993 RMK AO2 SLP152 T00230022 $
  • 240256Z AUTO 00000KT 9999 OVC090 02/02 A2993 RMK AO2 SLP152 T00240021 58004 $

TAF TAF ETIC
Valid from the 23 at 22:00 until the 25 at 04:00 UTC


232204Z 2322/2504 19006KT 9999 BKN050 QNH2991INS
BECMG 2407/2408 18009KT 9999 BKN060 QNH2989INS
BECMG 2414/2415 22009KT 9000 -SHRA BKN030 OVC050 QNH2988INS
BECMG 2419/2420 22009KT 6000 -RA BKN010 OVC020 QNH2987INS
BECMG 2423/2424 20006KT 6000 -RA OVC006 QNH2982INS TX12/2414Z TN00/2406Z
No reported NOTAMs for that airfield.



MET'MAP, your aeronautical weather chart ! - Copyright ORBIFLY December 2007 - Disclaimer

ORBIFLY MET'MAP TEAM :

Programming & Development : Alexandra Zaïnal
Concept & Development : Baudouin d'Aumeries
Co-Development & Prog : Marc-Olivier Méhu
Technical & hardware support : Manuel Goepfert

Contact : metmap@orbifly.com




SOURCES & CREDITS :

   NOAA